Kassel, Tyskland

03:28 AM CEST on September 04, 2015 (GMT +0200)
Fritzlar Army | | Change Station
CLOSE
Current Station
Airport
Location: Fritzlar,
Elevation: 594 ft
Nearby Weather Stations

Elev 594 ft 51.12 °N, 9.28 °E | Updated 8 minutes ago

Light Rain
Lätt regn
52 °F
Feels Like 52 °F
N
2
Vind Växlande Vind from S/SV

Idag
High -- | Low -- °F
--% Chance of Precip.
Yesterday
High -- | Low -- °F
Precip. -- tum
6:39 AM 8:02 PM
Tredje kvarteret, 65% visible
Lufttryck 29.95 tum
Sikt 6.2 miles
Molnigt Mestadels molnigt 5000 ft
Daggpunkt 48 °F
Luftfuktighet 88%
Rainfall 0.00 tum
Snow Depth Not available.
UV 0 out of 12
Pollen Not available.
Air Quality Not available.
Flu Activity Not available.
METAR ETHF 040120Z 21002KT 9999 -RA BKN050 11/09 Q1014 BLU
Lufttryck 29.95 tum
Sikt 6.2 miles
Molnigt Mestadels molnigt 5000 ft
Daggpunkt 48 °F
Luftfuktighet 88%
Rainfall 0.00 tum
Snow Depth Not available.
UV 0 out of 12
Pollen Not available.
Air Quality Not available.
Flu Activity Not available.
METAR ETHF 040120Z 21002KT 9999 -RA BKN050 11/09 Q1014 BLU

10-Day Weather Forecast

×

Almanac

Astronomi

Sep. 04, 2015 Rise Set
Actual Time
Civil Twilight
Nautical Twilight
Astronomical Twilight
Månen
Length Of Visible Light
Dagens längd
Tomorrow will be .
, % of the Moon is Illuminated

Today's Extremes

Country Highs Country Lows

Community

WunderPhotos

Upload Photos

1,852,081 photos uploaded!

WunderBlogs® & News

Nearby

Air Quality

  Air Quality AQ Index Pollutant
Not available.

Snödjup

Station Depth Elevation

Earthquake Activity

Stad Distance Mag. Time & Date
Minimum magnitude displayed is 2.5.

Coastal Water Temperatures

Plats Temperatur

Stations

Nearby Weather Stations

Station Location Temp Vindavkylning Daggpunkt Luftfuktighet Vind Precip. Elev Uppdaterad Type